Mountain Home Air Force Base
KMUO : now visible

Airfield :











YOU CAN JOIN US ON...

 
LOGIN :

Register | Disclaimer

   EN    FR    IT 

 









Legend :    VFR   Marginal VFR   IFR   Intensive IFR   Very Intensive IFR
Visi :
Ceiling :
>= 8 km
>= 3000ft
5 to 8 km
1000 to 3000 ft
1500m to 5 km
500 to 1000 ft
800 to 1500m
200 to 500 ft
< 800m
< 200 ft
Symbols :   Thunderstorms  Fog  Heavy snow  Heavy precipitations  Wind > 20 kt






- Airport Elevation : 2996 ft


KMUO - Mountain Home Air Force Base

CURRENT METAR :
  • 042258Z AUTO 33012G28KT 10SM CLR 35/M06 A2996 RMK AO2 PK WND 33028/50 SLP115 T03451063 $

EXPIRED METARs :
  • 042158Z AUTO 32012KT 10SM CLR 34/M07 A2999 RMK AO2 SLP126 T03381068 $
  • 042058Z 30009KT 10SM CLR 33/M06 A3001 RMK AO2A SLP133 T03291057 57017 $

TAF AMD TAF KMUO
Valid from the 04 at 20:00 until the 06 at 00:00 UTC


042005Z 0420/0524 30010G15KT 9999 SKC QNH2999INS
TEMPO 0422/0503 30015G25KT 510005
BECMG 0502/0503 33009KT 9999 FEW180 QNH2990INS
BECMG 0521/0522 31009KT 9999 SCT100 QNH2980INS TX34/0423Z TN17/0510Z
KZLC FIR / North America



MET'MAP, your aeronautical weather chart ! - Copyright ORBIFLY December 2007 - Disclaimer

ORBIFLY MET'MAP TEAM :

Programming & Development : Alexandra Zaïnal
Concept & original design : Baudouin d'Aumeries
Assistance for programming : Marc-Olivier Méhu
Technical & hardware support : Manuel Goepfert

Contact : metmap@orbifly.com




SOURCES & CREDITS :

   NOAA       Earth
Advisory